Time;durP1;ratioP1;P1;durP2;ratioP2;P2;SDS_P1;SDS_P2;PMS_P1;PMS_P2;Temp;Humidity;BMP_temperature;BMP_pressure;BME280_temperature;BME280_humidity;BME280_pressure;Samples;Min_cycle;Max_cycle;Signal;HPM_P1;HPM_P2
2023/06/30 00:01:58;;;;;;;6.45;2.58;;;15.40;81.20;;;;;;5007015;28;20050;-71
2023/06/30 00:04:30;;;;;;;7.60;2.27;;;15.40;81.20;;;;;;5010209;28;20054;-70
2023/06/30 00:06:57;;;;;;;11.98;2.88;;;15.40;81.10;;;;;;5013125;28;20727;-71
2023/06/30 00:09:26;;;;;;;10.63;3.00;;;15.30;81.20;;;;;;5023970;28;20066;-71
2023/06/30 00:11:54;;;;;;;11.23;3.00;;;15.30;81.10;;;;;;5006704;28;20061;-70
2023/06/30 00:14:22;;;;;;;8.05;2.70;;;15.30;81.10;;;;;;4990139;28;20053;-70
2023/06/30 00:16:50;;;;;;;7.70;2.60;;;15.30;81.10;;;;;;5010670;28;20128;-71
2023/06/30 00:19:18;;;;;;;6.03;2.47;;;15.20;81.00;;;;;;5015751;28;20144;-70
2023/06/30 00:21:45;;;;;;;9.20;2.70;;;15.20;81.00;;;;;;5014308;28;20520;-70
2023/06/30 00:24:13;;;;;;;6.85;2.60;;;15.20;81.10;;;;;;5010826;28;20079;-70
2023/06/30 00:26:41;;;;;;;7.97;2.30;;;15.20;81.00;;;;;;5007058;28;20442;-71
2023/06/30 00:29:09;;;;;;;7.30;2.23;;;15.10;81.10;;;;;;5011885;28;20051;-70
2023/06/30 00:31:36;;;;;;;6.15;2.42;;;15.10;80.90;;;;;;5011877;28;20051;-70
2023/06/30 00:34:03;;;;;;;7.35;2.53;;;15.00;80.90;;;;;;5011124;28;20130;-70
2023/06/30 00:36:31;;;;;;;7.68;2.70;;;15.00;80.80;;;;;;5017869;28;20046;-70
2023/06/30 00:39:00;;;;;;;8.63;2.67;;;15.00;80.80;;;;;;5015445;28;20074;-70
2023/06/30 00:41:27;;;;;;;7.63;2.23;;;14.90;80.80;;;;;;5013933;28;20042;-70
2023/06/30 00:43:55;;;;;;;8.95;2.47;;;14.90;80.80;;;;;;5009863;28;20691;-70
2023/06/30 00:46:23;;;;;;;9.02;2.47;;;14.90;80.80;;;;;;4999420;28;20050;-70
2023/06/30 00:48:50;;;;;;;7.18;2.30;;;14.80;80.90;;;;;;5009979;28;20150;-70
2023/06/30 00:51:17;;;;;;;8.75;2.28;;;14.80;80.90;;;;;;5007734;28;20595;-71
2023/06/30 00:53:48;;;;;;;6.97;2.60;;;14.80;81.00;;;;;;5010711;28;20057;-70
2023/06/30 00:56:15;;;;;;;5.63;2.40;;;14.80;80.90;;;;;;5017362;28;20054;-70
2023/06/30 00:58:43;;;;;;;7.57;2.15;;;14.80;80.90;;;;;;4995363;28;20511;-70
2023/06/30 01:01:21;;;;;;;7.20;2.50;;;14.80;80.80;;;;;;5012187;28;20054;-70
2023/06/30 01:03:52;;;;;;;8.07;2.58;;;14.80;80.70;;;;;;5009400;28;20891;-70
2023/06/30 01:06:25;;;;;;;6.13;2.63;;;14.70;80.70;;;;;;4991919;28;20226;-70
2023/06/30 01:08:57;;;;;;;9.00;2.67;;;14.70;80.60;;;;;;5006855;28;20129;-71
2023/06/30 01:11:25;;;;;;;8.27;2.42;;;14.70;80.50;;;;;;5015761;28;20540;-71
2023/06/30 01:13:55;;;;;;;8.05;2.50;;;14.70;80.50;;;;;;4997754;28;20047;-70
2023/06/30 01:16:27;;;;;;;9.23;2.13;;;14.70;80.50;;;;;;5012092;28;20050;-70
2023/06/30 01:18:58;;;;;;;9.20;2.30;;;14.70;80.50;;;;;;4993087;28;20128;-70
2023/06/30 01:21:28;;;;;;;6.93;1.98;;;14.70;80.30;;;;;;5010677;28;20158;-71
2023/06/30 01:23:57;;;;;;;7.50;2.40;;;14.60;80.20;;;;;;5010711;28;20062;-70
2023/06/30 01:26:24;;;;;;;6.40;2.17;;;14.60;80.20;;;;;;5025643;28;20070;-70
2023/06/30 01:28:52;;;;;;;5.80;2.13;;;14.60;80.10;;;;;;5009178;28;20579;-70
2023/06/30 01:31:19;;;;;;;6.37;2.30;;;14.60;80.10;;;;;;4992885;28;20043;-71
2023/06/30 01:33:48;;;;;;;8.38;2.55;;;14.50;80.10;;;;;;5009122;28;20056;-70
2023/06/30 01:36:15;;;;;;;6.82;2.00;;;14.50;80.00;;;;;;5012491;28;20049;-71
2023/06/30 01:38:43;;;;;;;6.63;2.17;;;14.50;80.00;;;;;;5016428;28;20125;-70
2023/06/30 01:41:10;;;;;;;6.95;2.40;;;14.40;80.00;;;;;;5023958;28;20052;-71
2023/06/30 01:43:40;;;;;;;7.70;2.30;;;14.40;80.10;;;;;;5024757;28;20053;-70
2023/06/30 01:46:07;;;;;;;6.90;2.20;;;14.40;80.10;;;;;;5010137;28;20046;-70
2023/06/30 01:48:35;;;;;;;5.88;2.00;;;14.40;80.10;;;;;;5014654;28;20513;-70
2023/06/30 01:51:04;;;;;;;6.70;2.10;;;14.40;80.00;;;;;;5011078;28;20097;-70
2023/06/30 01:53:31;;;;;;;6.22;2.03;;;14.40;79.90;;;;;;5007093;28;20193;-70
2023/06/30 01:55:58;;;;;;;6.47;1.40;;;14.40;79.80;;;;;;4999967;28;20042;-71
2023/06/30 01:58:25;;;;;;;6.55;1.88;;;14.30;79.70;;;;;;5012967;28;20061;-70
2023/06/30 02:00:52;;;;;;;6.30;2.05;;;14.30;79.70;;;;;;4996649;28;20067;-70
2023/06/30 02:03:19;;;;;;;6.82;2.00;;;14.30;79.70;;;;;;5008684;28;20618;-70
2023/06/30 02:05:49;;;;;;;6.43;1.73;;;14.20;79.80;;;;;;5014399;28;20050;-70
2023/06/30 02:08:18;;;;;;;7.60;2.20;;;14.20;79.80;;;;;;4989497;28;20390;-70
2023/06/30 02:10:45;;;;;;;6.05;2.05;;;14.20;79.70;;;;;;5027382;28;20049;-70
2023/06/30 02:13:12;;;;;;;8.73;2.50;;;14.10;79.80;;;;;;5014157;28;20045;-70
2023/06/30 02:15:38;;;;;;;6.00;2.13;;;14.10;79.80;;;;;;4996075;28;20052;-70
2023/06/30 02:18:05;;;;;;;6.80;2.10;;;14.10;79.80;;;;;;5010238;28;20053;-70
2023/06/30 02:20:33;;;;;;;8.27;2.30;;;14.10;79.80;;;;;;5009391;28;20439;-70
2023/06/30 02:23:00;;;;;;;6.82;2.13;;;14.00;79.80;;;;;;4989966;28;20046;-70
2023/06/30 02:25:28;;;;;;;7.07;2.00;;;14.00;79.70;;;;;;4995419;28;20586;-70
2023/06/30 02:27:55;;;;;;;7.35;1.75;;;14.00;79.70;;;;;;5007497;28;20053;-70
2023/06/30 02:30:22;;;;;;;5.07;1.80;;;13.90;79.70;;;;;;4985880;28;20671;-70
2023/06/30 02:32:49;;;;;;;5.87;1.90;;;13.90;79.70;;;;;;5013782;28;20571;-71
2023/06/30 02:35:16;;;;;;;5.80;1.90;;;13.90;79.60;;;;;;5008830;28;20153;-70
2023/06/30 02:37:43;;;;;;;5.43;2.00;;;13.90;79.70;;;;;;4990545;28;20590;-70
2023/06/30 02:40:10;;;;;;;8.23;2.17;;;13.80;79.70;;;;;;5009501;28;20133;-70
2023/06/30 02:42:38;;;;;;;6.93;1.80;;;13.70;79.70;;;;;;5010237;28;20606;-70
2023/06/30 02:45:06;;;;;;;5.43;1.80;;;13.80;79.70;;;;;;5012850;28;20501;-71
2023/06/30 02:47:34;;;;;;;8.20;2.22;;;13.70;79.70;;;;;;5007958;28;20116;-70
2023/06/30 02:50:02;;;;;;;9.50;1.90;;;13.60;79.70;;;;;;4991869;28;20050;-70
2023/06/30 02:52:31;;;;;;;7.05;1.95;;;13.60;79.80;;;;;;5028008;28;20042;-70
2023/06/30 02:54:58;;;;;;;6.93;1.88;;;13.60;79.80;;;;;;4997812;28;20050;-70
2023/06/30 02:57:29;;;;;;;8.70;2.00;;;13.50;79.80;;;;;;5011327;28;20046;-70
2023/06/30 03:00:00;;;;;;;8.43;2.03;;;13.50;79.90;;;;;;5030430;28;20134;-70
2023/06/30 03:02:27;;;;;;;6.88;1.85;;;13.50;80.00;;;;;;5009785;28;20160;-70
2023/06/30 03:04:55;;;;;;;10.30;2.40;;;13.50;80.00;;;;;;5012713;28;20050;-71
2023/06/30 03:07:23;;;;;;;7.78;1.90;;;13.50;80.00;;;;;;4988317;28;20050;-70
2023/06/30 03:09:50;;;;;;;9.17;2.00;;;13.50;80.10;;;;;;5002671;28;20521;-70
2023/06/30 03:12:18;;;;;;;7.63;2.13;;;13.50;80.10;;;;;;5011834;28;20708;-70
2023/06/30 03:14:45;;;;;;;7.18;1.95;;;13.50;80.00;;;;;;4995433;28;20049;-70
2023/06/30 03:17:13;;;;;;;6.82;2.00;;;13.40;80.00;;;;;;4991188;28;20050;-70
2023/06/30 03:19:40;;;;;;;8.43;1.98;;;13.40;80.00;;;;;;4998880;28;20060;-70
2023/06/30 03:22:07;;;;;;;5.90;2.23;;;13.30;80.00;;;;;;5011721;28;20070;-70
2023/06/30 03:24:34;;;;;;;6.65;2.25;;;13.30;80.00;;;;;;4990879;28;20564;-70
2023/06/30 03:27:01;;;;;;;5.93;1.95;;;13.30;80.00;;;;;;4995429;28;20129;-70
2023/06/30 03:29:28;;;;;;;5.05;2.58;;;13.30;80.00;;;;;;5014748;28;20073;-70
2023/06/30 03:31:57;;;;;;;5.35;1.77;;;13.30;80.00;;;;;;4994861;28;20054;-70
2023/06/30 03:34:25;;;;;;;7.97;2.13;;;13.30;80.00;;;;;;4992201;28;20054;-70
2023/06/30 03:36:52;;;;;;;7.10;1.80;;;13.30;80.00;;;;;;5006899;28;20078;-70
2023/06/30 03:39:23;;;;;;;6.60;2.15;;;13.30;80.10;;;;;;5013634;28;20189;-70
2023/06/30 03:41:50;;;;;;;6.75;2.10;;;13.20;80.00;;;;;;4995867;28;20128;-70
2023/06/30 03:44:18;;;;;;;7.00;1.92;;;13.20;80.00;;;;;;4990482;28;20054;-70
2023/06/30 03:46:44;;;;;;;5.97;2.00;;;13.10;80.00;;;;;;5014372;28;20054;-70
2023/06/30 03:49:11;;;;;;;7.13;2.47;;;13.10;80.10;;;;;;5008699;28;20064;-70
2023/06/30 03:51:41;;;;;;;6.47;2.10;;;13.10;80.20;;;;;;4986703;28;20062;-70
2023/06/30 03:54:09;;;;;;;7.18;2.42;;;13.10;80.30;;;;;;4986555;28;20050;-70
2023/06/30 03:56:35;;;;;;;6.80;2.40;;;13.10;80.30;;;;;;4991316;28;20057;-70
2023/06/30 03:59:02;;;;;;;6.60;2.37;;;13.10;80.40;;;;;;4990771;28;20057;-70
2023/06/30 04:01:33;;;;;;;6.20;2.35;;;13.10;80.40;;;;;;4994131;28;20560;-70
2023/06/30 04:04:00;;;;;;;7.70;2.50;;;13.10;80.40;;;;;;5017501;28;20054;-70
2023/06/30 04:06:27;;;;;;;9.38;2.50;;;13.10;80.30;;;;;;5014522;28;20054;-70
2023/06/30 04:08:55;;;;;;;5.95;2.17;;;13.10;80.40;;;;;;5008103;28;20177;-70
2023/06/30 04:11:22;;;;;;;6.80;2.33;;;13.20;80.30;;;;;;4993750;28;20054;-70
2023/06/30 04:13:49;;;;;;;7.53;2.58;;;13.20;80.30;;;;;;5011935;28;20054;-70
2023/06/30 04:16:17;;;;;;;6.43;2.33;;;13.20;80.30;;;;;;5008415;28;20054;-70
2023/06/30 04:18:44;;;;;;;9.48;2.60;;;13.30;80.30;;;;;;5005968;28;20050;-70
2023/06/30 04:21:11;;;;;;;6.85;2.47;;;13.30;80.20;;;;;;5005464;28;20042;-70
2023/06/30 04:23:38;;;;;;;6.70;2.37;;;13.20;80.20;;;;;;5007078;28;20057;-70
2023/06/30 04:26:06;;;;;;;7.82;2.50;;;13.30;80.20;;;;;;5009387;28;20109;-70
2023/06/30 04:28:33;;;;;;;7.95;2.50;;;13.20;80.20;;;;;;5026019;28;20060;-70
2023/06/30 04:31:00;;;;;;;6.38;2.10;;;13.20;80.20;;;;;;5007803;28;20059;-70
2023/06/30 04:33:27;;;;;;;6.93;2.42;;;13.20;80.20;;;;;;5007024;28;20713;-70
2023/06/30 04:35:54;;;;;;;6.80;2.10;;;13.30;80.30;;;;;;5005988;28;20117;-70
2023/06/30 04:38:21;;;;;;;6.47;2.15;;;13.30;80.30;;;;;;5006757;28;20055;-70
2023/06/30 04:40:48;;;;;;;6.90;2.25;;;13.20;80.30;;;;;;5006497;28;20051;-70
2023/06/30 04:43:16;;;;;;;7.80;2.63;;;13.30;80.40;;;;;;5007911;28;20101;-70
2023/06/30 04:45:43;;;;;;;9.07;2.42;;;13.30;80.40;;;;;;5007261;28;20165;-71
2023/06/30 04:48:10;;;;;;;9.67;2.30;;;13.30;80.50;;;;;;5009960;28;20505;-70
2023/06/30 04:50:37;;;;;;;9.10;2.33;;;13.30;80.60;;;;;;5001812;28;20149;-70
2023/06/30 04:53:04;;;;;;;7.75;2.55;;;13.30;80.60;;;;;;5004456;28;20546;-70
2023/06/30 04:55:31;;;;;;;8.95;2.50;;;13.30;80.70;;;;;;4987027;28;20683;-70
2023/06/30 04:57:58;;;;;;;6.60;2.15;;;13.30;80.80;;;;;;4995666;28;20153;-69
2023/06/30 05:00:27;;;;;;;9.77;2.03;;;13.30;80.80;;;;;;5008538;28;20058;-69
2023/06/30 05:02:56;;;;;;;3.33;0.93;;;13.30;80.90;;;;;;5005177;28;20046;-70
2023/06/30 05:05:23;;;;;;;8.90;2.55;;;13.40;81.20;;;;;;5008741;28;20112;-70
2023/06/30 05:07:50;;;;;;;3.58;0.93;;;13.40;81.50;;;;;;5003828;28;20174;-70
2023/06/30 05:10:17;;;;;;;6.70;1.75;;;13.40;81.90;;;;;;4998244;28;20149;-70
2023/06/30 05:12:44;;;;;;;5.97;2.13;;;13.50;81.70;;;;;;4986408;28;20062;-69
2023/06/30 05:15:11;;;;;;;5.95;2.00;;;13.50;82.00;;;;;;5024103;28;20058;-70
2023/06/30 05:17:39;;;;;;;8.35;2.30;;;13.50;82.10;;;;;;4981791;28;20050;-70
2023/06/30 05:20:08;;;;;;;6.53;2.30;;;13.50;82.20;;;;;;4991117;28;20090;-69
2023/06/30 05:22:35;;;;;;;7.00;2.33;;;13.50;82.30;;;;;;4999725;28;20051;-70
2023/06/30 05:25:02;;;;;;;6.53;2.10;;;13.50;82.60;;;;;;5004363;28;20110;-69
2023/06/30 05:27:29;;;;;;;7.07;1.92;;;13.50;82.70;;;;;;5004722;28;20063;-70
2023/06/30 05:29:55;;;;;;;7.05;1.95;;;13.60;82.90;;;;;;4997762;28;20110;-69
2023/06/30 05:32:23;;;;;;;5.85;1.85;;;13.60;82.80;;;;;;5003045;28;20120;-70
2023/06/30 05:34:51;;;;;;;7.22;1.80;;;13.60;83.00;;;;;;4997974;28;20051;-70
2023/06/30 05:37:18;;;;;;;6.17;1.50;;;13.70;83.00;;;;;;5003860;28;20053;-69
2023/06/30 05:39:45;;;;;;;9.13;2.17;;;13.70;83.20;;;;;;4996024;28;20042;-70
2023/06/30 05:42:12;;;;;;;5.05;1.70;;;13.70;83.30;;;;;;5001381;28;20177;-70
2023/06/30 05:44:39;;;;;;;6.55;1.75;;;13.90;83.70;;;;;;4999260;28;20058;-70
2023/06/30 05:47:06;;;;;;;5.97;1.65;;;13.90;83.70;;;;;;5001650;28;20066;-69
2023/06/30 05:49:33;;;;;;;6.57;2.23;;;13.90;83.90;;;;;;5003093;28;20093;-70
2023/06/30 05:52:01;;;;;;;8.25;2.20;;;14.00;84.00;;;;;;4999549;28;20593;-69
2023/06/30 05:54:28;;;;;;;6.97;1.73;;;14.10;83.90;;;;;;5005724;28;20069;-69
2023/06/30 05:56:55;;;;;;;7.90;1.70;;;14.10;84.10;;;;;;4999859;28;20144;-69
2023/06/30 05:59:22;;;;;;;6.60;1.40;;;14.20;84.10;;;;;;5001918;28;20055;-70
2023/06/30 06:01:49;;;;;;;8.70;1.83;;;14.30;84.10;;;;;;4998970;28;20050;-70
2023/06/30 06:04:18;;;;;;;6.68;1.70;;;14.40;83.90;;;;;;5000944;28;20081;-69
2023/06/30 06:06:44;;;;;;;6.72;1.80;;;14.50;83.80;;;;;;5006595;28;20050;-69
2023/06/30 06:09:13;;;;;;;4.72;1.60;;;14.50;83.70;;;;;;5004543;28;20575;-70
2023/06/30 06:11:40;;;;;;;4.47;1.38;;;14.60;83.50;;;;;;4999064;28;20054;-69
2023/06/30 06:14:07;;;;;;;4.90;1.27;;;14.70;83.20;;;;;;5001446;28;20059;-70
2023/06/30 06:16:33;;;;;;;5.88;1.20;;;14.70;83.20;;;;;;5001357;28;20567;-70
2023/06/30 06:19:00;;;;;;;4.30;1.20;;;14.80;83.00;;;;;;4997654;28;20541;-70
2023/06/30 06:21:28;;;;;;;6.40;1.23;;;14.90;82.70;;;;;;4999819;28;20065;-70
2023/06/30 06:23:55;;;;;;;4.90;0.98;;;15.00;82.20;;;;;;5007138;28;20062;-69
2023/06/30 06:26:23;;;;;;;5.87;1.27;;;15.00;82.00;;;;;;4991491;28;20590;-69
2023/06/30 06:28:51;;;;;;;6.63;1.30;;;15.00;81.70;;;;;;4994039;28;20048;-69
2023/06/30 06:31:18;;;;;;;6.03;1.70;;;15.00;81.80;;;;;;5000239;28;20442;-69
2023/06/30 06:33:45;;;;;;;8.20;1.55;;;15.20;81.90;;;;;;4998474;28;20098;-69
2023/06/30 06:36:12;;;;;;;5.95;1.10;;;15.20;81.90;;;;;;5005568;28;20054;-69
2023/06/30 06:38:39;;;;;;;5.27;1.10;;;15.30;81.00;;;;;;5004075;28;20643;-69
2023/06/30 06:41:06;;;;;;;4.20;1.30;;;15.40;80.50;;;;;;5006059;28;20499;-69
2023/06/30 06:43:34;;;;;;;5.03;1.20;;;15.40;80.70;;;;;;5005758;28;20130;-69
2023/06/30 06:46:01;;;;;;;7.95;1.33;;;15.50;80.80;;;;;;5007222;28;20056;-69
2023/06/30 06:48:29;;;;;;;5.03;1.33;;;15.60;80.00;;;;;;5027835;28;20058;-70
2023/06/30 06:50:58;;;;;;;5.30;1.10;;;15.60;80.10;;;;;;5005035;28;20181;-69
2023/06/30 06:53:27;;;;;;;6.47;1.63;;;15.60;79.20;;;;;;5000456;28;20053;-69
2023/06/30 06:55:56;;;;;;;3.05;0.90;;;15.70;79.20;;;;;;5009060;28;20137;-69
2023/06/30 06:58:24;;;;;;;5.13;1.02;;;15.80;79.10;;;;;;5007639;28;20050;-69
2023/06/30 07:00:53;;;;;;;5.03;1.40;;;15.80;78.80;;;;;;5008912;28;20615;-69
2023/06/30 07:03:20;;;;;;;4.70;0.83;;;15.80;78.00;;;;;;5003495;28;20086;-69
2023/06/30 07:05:47;;;;;;;5.00;1.10;;;15.80;78.30;;;;;;5007479;28;20153;-69
2023/06/30 07:08:15;;;;;;;4.18;0.90;;;16.00;77.90;;;;;;5016133;28;20049;-69
2023/06/30 07:10:43;;;;;;;4.35;0.90;;;16.00;77.00;;;;;;5015334;28;20053;-69
2023/06/30 07:13:10;;;;;;;7.22;1.20;;;16.00;76.40;;;;;;5007721;28;20058;-69
2023/06/30 07:15:37;;;;;;;5.63;1.10;;;16.10;76.50;;;;;;5001916;28;20108;-69
2023/06/30 07:18:05;;;;;;;6.13;0.90;;;16.10;76.60;;;;;;4994258;28;20556;-69
2023/06/30 07:20:32;;;;;;;4.60;1.00;;;16.10;75.70;;;;;;5024245;28;20728;-69
2023/06/30 07:22:59;;;;;;;6.40;1.20;;;16.20;75.60;;;;;;5010088;28;20508;-69
2023/06/30 07:25:27;;;;;;;5.35;1.30;;;16.30;74.80;;;;;;5008870;28;20085;-69
2023/06/30 07:27:56;;;;;;;3.63;0.80;;;16.40;74.60;;;;;;5011136;28;20055;-69
2023/06/30 07:30:25;;;;;;;4.32;1.20;;;16.40;73.40;;;;;;5008410;28;20468;-69
2023/06/30 07:32:52;;;;;;;6.47;1.20;;;16.40;73.40;;;;;;5012359;28;20065;-70
2023/06/30 07:35:21;;;;;;;4.70;1.10;;;16.40;73.90;;;;;;5004824;28;20058;-70
2023/06/30 07:37:49;;;;;;;5.60;1.40;;;16.40;73.90;;;;;;5003504;28;20046;-69
2023/06/30 07:40:17;;;;;;;5.13;1.20;;;16.40;74.40;;;;;;5007077;28;20417;-69
2023/06/30 07:42:44;;;;;;;5.85;1.30;;;16.50;74.20;;;;;;5005849;28;20046;-69
2023/06/30 07:45:13;;;;;;;6.18;1.33;;;16.50;73.20;;;;;;4977518;28;20631;-69
2023/06/30 07:47:41;;;;;;;3.85;1.00;;;16.60;72.60;;;;;;4997779;28;20559;-69
2023/06/30 07:50:11;;;;;;;5.35;1.10;;;16.60;72.30;;;;;;5009904;28;20097;-69
2023/06/30 07:52:41;;;;;;;6.83;1.43;;;16.70;72.70;;;;;;5004220;28;20468;-69
2023/06/30 07:55:08;;;;;;;5.68;1.00;;;16.70;72.50;;;;;;5008864;28;20066;-70
2023/06/30 07:57:35;;;;;;;3.70;0.93;;;16.70;72.10;;;;;;4999222;28;20565;-70
2023/06/30 08:00:03;;;;;;;4.05;1.10;;;16.80;70.10;;;;;;5017999;28;20050;-69
2023/06/30 08:02:39;;;;;;;4.63;1.17;;;16.80;70.00;;;;;;5007932;28;20624;-69
2023/06/30 08:05:07;;;;;;;3.67;0.90;;;16.80;69.50;;;;;;5015072;28;20133;-70
2023/06/30 08:07:34;;;;;;;4.80;0.80;;;16.80;68.10;;;;;;5014271;28;20470;-69
2023/06/30 08:10:03;;;;;;;5.78;1.02;;;16.80;69.10;;;;;;5007917;28;20054;-70
2023/06/30 08:12:29;;;;;;;3.55;0.80;;;16.90;69.20;;;;;;5009707;28;20124;-70
2023/06/30 08:14:56;;;;;;;5.60;1.10;;;16.90;69.00;;;;;;5010864;28;20058;-69
2023/06/30 08:17:23;;;;;;;3.90;0.90;;;16.90;69.00;;;;;;5007967;28;20049;-69
2023/06/30 08:19:51;;;;;;;4.78;1.02;;;16.90;68.70;;;;;;5002637;28;20050;-70
2023/06/30 08:22:18;;;;;;;3.20;0.80;;;16.90;68.70;;;;;;5001855;28;20064;-69
2023/06/30 08:24:45;;;;;;;4.20;1.23;;;17.00;68.70;;;;;;5004072;28;20145;-69
2023/06/30 08:27:16;;;;;;;4.28;0.90;;;17.00;68.00;;;;;;5006341;28;20620;-69
2023/06/30 08:29:43;;;;;;;4.03;0.67;;;17.00;68.50;;;;;;4989945;28;20046;-69
2023/06/30 08:32:10;;;;;;;4.50;0.88;;;17.10;67.90;;;;;;5007626;28;20054;-68
2023/06/30 08:34:38;;;;;;;5.43;0.93;;;17.20;67.50;;;;;;5014682;28;20113;-69
2023/06/30 08:37:05;;;;;;;4.95;1.30;;;17.20;67.70;;;;;;5004218;28;20109;-69
2023/06/30 08:39:32;;;;;;;3.92;1.15;;;17.20;68.50;;;;;;5007959;28;20619;-69
2023/06/30 08:42:01;;;;;;;3.40;0.70;;;17.20;69.10;;;;;;5007831;28;20556;-69
2023/06/30 08:44:32;;;;;;;3.42;0.82;;;17.20;69.50;;;;;;5000709;28;20563;-69
2023/06/30 08:47:01;;;;;;;4.90;1.00;;;17.30;68.80;;;;;;4999077;28;20199;-68
2023/06/30 08:49:29;;;;;;;4.07;1.30;;;17.40;68.00;;;;;;5008232;28;20497;-69
2023/06/30 08:51:57;;;;;;;8.05;1.20;;;17.40;67.70;;;;;;5008760;28;20169;-70
2023/06/30 08:54:25;;;;;;;3.80;0.90;;;17.40;68.00;;;;;;4993413;28;20064;-69
2023/06/30 08:56:54;;;;;;;3.28;0.90;;;17.50;68.20;;;;;;5009222;28;20058;-69
2023/06/30 08:59:21;;;;;;;5.05;1.00;;;17.50;66.60;;;;;;5006864;28;20174;-69
2023/06/30 09:01:49;;;;;;;4.43;1.10;;;17.50;64.30;;;;;;5012163;28;20132;-69
2023/06/30 09:04:16;;;;;;;3.40;0.85;;;17.60;65.00;;;;;;5012617;28;20617;-69
2023/06/30 09:06:48;;;;;;;3.80;0.90;;;17.60;64.10;;;;;;5001416;28;20639;-68
2023/06/30 09:09:21;;;;;;;4.43;0.80;;;17.70;65.10;;;;;;5001742;28;20051;-69
2023/06/30 09:11:49;;;;;;;3.80;0.80;;;17.70;65.50;;;;;;5009870;28;20058;-69
2023/06/30 09:14:18;;;;;;;3.30;0.55;;;17.80;64.40;;;;;;5013304;28;20058;-69
2023/06/30 09:16:46;;;;;;;2.95;0.80;;;17.80;65.10;;;;;;5000695;28;20130;-70
2023/06/30 09:19:15;;;;;;;4.57;0.80;;;17.80;65.30;;;;;;5022153;28;20462;-70
2023/06/30 09:21:42;;;;;;;3.60;0.70;;;17.80;64.00;;;;;;5009226;28;20062;-70
2023/06/30 09:24:10;;;;;;;2.47;0.60;;;17.90;62.50;;;;;;5011971;28;20051;-69
2023/06/30 09:26:36;;;;;;;5.38;1.10;;;18.00;63.00;;;;;;5012828;28;20051;-69
2023/06/30 09:29:08;;;;;;;5.03;0.88;;;18.00;62.70;;;;;;4993315;28;20070;-69
2023/06/30 09:31:35;;;;;;;2.20;0.50;;;18.00;63.30;;;;;;5001002;28;20081;-70
2023/06/30 09:34:10;;;;;;;3.38;1.05;;;18.10;61.20;;;;;;4998977;28;20062;-70
2023/06/30 09:36:38;;;;;;;3.10;0.57;;;18.10;61.40;;;;;;4986518;28;20063;-69
2023/06/30 09:39:09;;;;;;;3.85;1.00;;;18.10;62.20;;;;;;5000444;28;20058;-69
2023/06/30 09:41:36;;;;;;;4.15;1.30;;;18.10;62.60;;;;;;5004116;28;20863;-69
2023/06/30 09:44:04;;;;;;;3.30;0.90;;;18.10;61.50;;;;;;4996795;28;20059;-69
2023/06/30 09:46:31;;;;;;;3.90;0.80;;;18.20;61.00;;;;;;4997732;28;20117;-70
2023/06/30 09:49:01;;;;;;;4.93;1.00;;;18.20;62.60;;;;;;5023554;28;20054;-70
2023/06/30 09:51:32;;;;;;;3.22;0.90;;;18.30;61.80;;;;;;5007638;28;20038;-69
2023/06/30 09:54:01;;;;;;;3.13;0.98;;;18.30;62.90;;;;;;5014821;28;20063;-69
2023/06/30 09:56:29;;;;;;;4.63;1.13;;;18.40;60.80;;;;;;5007807;28;20057;-72
2023/06/30 09:58:57;;;;;;;7.35;0.80;;;18.40;60.00;;;;;;5011891;28;20074;-71
2023/06/30 10:01:24;;;;;;;3.70;0.90;;;18.40;58.90;;;;;;5011167;28;20049;-71
2023/06/30 10:03:54;;;;;;;3.67;1.00;;;18.50;59.10;;;;;;5008398;28;20050;-71
2023/06/30 10:06:23;;;;;;;3.25;0.70;;;18.50;59.80;;;;;;5014345;28;20058;-71
2023/06/30 10:08:51;;;;;;;3.37;0.70;;;18.50;60.30;;;;;;5014993;28;20058;-72
2023/06/30 10:11:22;;;;;;;2.15;0.50;;;18.60;60.00;;;;;;5003730;28;20130;-72
2023/06/30 10:13:52;;;;;;;4.70;0.88;;;18.60;60.60;;;;;;5008602;28;20145;-72
2023/06/30 10:16:22;;;;;;;6.57;1.05;;;18.70;59.60;;;;;;5000691;28;20141;-72
2023/06/30 10:18:51;;;;;;;2.50;0.73;;;18.70;59.70;;;;;;5011600;28;20163;-72
2023/06/30 10:21:18;;;;;;;5.07;1.23;;;18.70;59.90;;;;;;5001986;28;20517;-73
2023/06/30 10:23:48;;;;;;;5.20;1.10;;;18.70;60.20;;;;;;5007217;28;20050;-73
2023/06/30 10:26:18;;;;;;;6.00;1.38;;;18.70;60.00;;;;;;4998799;28;20162;-73
2023/06/30 10:28:48;;;;;;;4.07;1.10;;;18.70;60.30;;;;;;5001447;28;20154;-73
2023/06/30 10:31:15;;;;;;;4.13;1.00;;;18.80;59.60;;;;;;4995709;28;20055;-72
2023/06/30 10:33:42;;;;;;;5.07;1.00;;;18.80;60.40;;;;;;4998449;28;20078;-73
2023/06/30 10:36:10;;;;;;;4.78;1.42;;;18.80;59.80;;;;;;4999817;28;20046;-74
2023/06/30 10:38:38;;;;;;;5.20;0.90;;;18.80;58.80;;;;;;5008887;28;20046;-73
2023/06/30 10:41:17;;;;;;;5.65;0.82;;;18.80;59.00;;;;;;5001752;28;20531;-72
2023/06/30 10:44:10;;;;;;;4.35;0.90;;;18.80;59.40;;;;;;5006760;28;20057;-73
2023/06/30 10:46:51;;;;;;;4.03;0.80;;;18.80;59.30;;;;;;5003953;28;20141;-73
2023/06/30 10:49:26;;;;;;;3.30;0.90;;;18.90;58.60;;;;;;5021482;28;20137;-73
2023/06/30 10:51:56;;;;;;;4.22;0.90;;;18.90;58.30;;;;;;5000852;28;20045;-72
2023/06/30 10:54:25;;;;;;;3.80;0.80;;;19.00;57.20;;;;;;4998762;28;20054;-72
2023/06/30 10:56:53;;;;;;;4.35;0.98;;;19.00;57.30;;;;;;4998388;28;20055;-72
2023/06/30 10:59:24;;;;;;;3.63;1.10;;;19.10;56.20;;;;;;5019338;28;20054;-73
2023/06/30 11:02:15;;;;;;;3.90;1.10;;;19.10;56.20;;;;;;5002078;28;20058;-73
2023/06/30 11:04:43;;;;;;;2.97;0.90;;;19.10;56.70;;;;;;4996209;28;20062;-72
2023/06/30 11:07:11;;;;;;;4.22;1.15;;;19.10;56.30;;;;;;5001650;28;20134;-73
2023/06/30 11:09:58;;;;;;;3.85;1.10;;;19.10;57.10;;;;;;5000541;28;20054;-73
2023/06/30 11:12:26;;;;;;;4.17;1.13;;;19.10;56.50;;;;;;4989123;28;20051;-72
2023/06/30 11:14:58;;;;;;;7.78;1.35;;;19.10;56.20;;;;;;5012604;28;20064;-73
2023/06/30 11:17:27;;;;;;;3.47;1.10;;;19.20;56.20;;;;;;5011275;28;20057;-73
2023/06/30 11:20:11;;;;;;;4.72;0.90;;;19.20;57.10;;;;;;5013721;28;20571;-73
2023/06/30 11:22:39;;;;;;;3.60;0.70;;;19.40;54.20;;;;;;5011647;28;20528;-73
2023/06/30 11:25:10;;;;;;;4.43;0.97;;;19.40;54.80;;;;;;5008670;28;20058;-73
2023/06/30 11:27:38;;;;;;;4.18;0.90;;;19.50;52.50;;;;;;5015099;28;20054;-73
2023/06/30 11:30:08;;;;;;;3.45;0.88;;;19.60;52.80;;;;;;5008470;28;20054;-73
2023/06/30 11:32:37;;;;;;;3.97;1.10;;;19.70;53.40;;;;;;5007347;28;20085;-73
2023/06/30 11:35:07;;;;;;;5.28;1.60;;;19.80;53.60;;;;;;5008755;28;20050;-73
2023/06/30 11:37:36;;;;;;;3.63;0.87;;;19.90;54.00;;;;;;5008475;28;20058;-73
2023/06/30 11:40:05;;;;;;;4.13;1.00;;;20.00;52.90;;;;;;5007895;28;20058;-72
2023/06/30 11:42:35;;;;;;;5.28;1.30;;;20.00;52.00;;;;;;5009427;28;20131;-72
2023/06/30 11:45:04;;;;;;;4.43;1.23;;;20.10;52.20;;;;;;5006251;28;20051;-72
2023/06/30 11:47:34;;;;;;;4.22;0.77;;;20.10;52.20;;;;;;5012875;28;20113;-73
2023/06/30 11:50:07;;;;;;;4.53;1.30;;;20.10;50.80;;;;;;5005918;28;20056;-73
2023/06/30 11:52:35;;;;;;;3.53;1.20;;;20.30;50.50;;;;;;5018098;28;20070;-72
2023/06/30 11:55:06;;;;;;;3.92;1.20;;;20.30;51.10;;;;;;5006522;28;20101;-73
2023/06/30 11:57:36;;;;;;;3.70;1.30;;;20.30;51.10;;;;;;5012246;28;20105;-72
2023/06/30 12:00:12;;;;;;;3.25;1.10;;;20.40;51.30;;;;;;5005373;28;20054;-71
2023/06/30 12:02:59;;;;;;;3.53;0.90;;;20.50;49.70;;;;;;5011112;28;21249;-72
2023/06/30 12:05:27;;;;;;;3.58;0.82;;;20.50;49.40;;;;;;5007350;28;20081;-72
2023/06/30 12:07:56;;;;;;;5.55;1.33;;;20.50;49.50;;;;;;5003457;28;20141;-72
2023/06/30 12:10:36;;;;;;;3.85;0.90;;;20.50;50.60;;;;;;5008583;28;20497;-72
2023/06/30 12:13:07;;;;;;;3.25;1.23;;;20.50;51.60;;;;;;5009019;28;20278;-72
2023/06/30 12:15:35;;;;;;;5.30;1.20;;;20.60;51.60;;;;;;5005951;28;20137;-72
2023/06/30 12:18:05;;;;;;;5.07;1.20;;;20.60;51.90;;;;;;5011117;28;20918;-73
2023/06/30 12:20:34;;;;;;;4.80;1.50;;;20.60;51.50;;;;;;5002818;28;20539;-73
2023/06/30 12:23:01;;;;;;;4.22;1.33;;;20.70;51.60;;;;;;5000239;28;21033;-73
2023/06/30 12:25:31;;;;;;;9.07;1.75;;;20.70;52.40;;;;;;5011445;28;20149;-72
2023/06/30 12:27:58;;;;;;;5.20;1.30;;;20.70;51.80;;;;;;5009664;28;20046;-73
2023/06/30 12:30:28;;;;;;;3.78;1.30;;;20.70;51.10;;;;;;5010147;28;20136;-73
2023/06/30 12:32:57;;;;;;;5.00;1.40;;;20.80;51.70;;;;;;4991211;28;20061;-73
2023/06/30 12:35:37;;;;;;;4.63;1.30;;;20.80;52.20;;;;;;5012590;28;20054;-73
2023/06/30 12:38:07;;;;;;;4.72;1.15;;;20.90;51.00;;;;;;5008990;28;20097;-73
2023/06/30 12:40:34;;;;;;;5.73;1.20;;;20.90;49.90;;;;;;5010090;28;20046;-73
2023/06/30 12:43:02;;;;;;;4.85;1.20;;;21.00;50.30;;;;;;5011241;28;20504;-72
2023/06/30 12:45:29;;;;;;;3.35;1.15;;;21.00;50.10;;;;;;5021872;28;20136;-72
2023/06/30 12:47:56;;;;;;;4.82;1.30;;;21.00;51.00;;;;;;5009309;28;20054;-72
2023/06/30 12:50:23;;;;;;;3.35;1.10;;;21.10;51.20;;;;;;5002053;28;20058;-72
2023/06/30 12:52:51;;;;;;;2.50;0.90;;;21.10;51.50;;;;;;5004727;28;20060;-72